sensor_id;sensor_type;location;lat;lon;timestamp;temperature;humidity
67163;DHT22;54092;53.088;8.850;2024-02-26T00:01:40;3.70;99.90
67163;DHT22;54092;53.088;8.850;2024-02-26T00:04:06;3.60;99.90
67163;DHT22;54092;53.088;8.850;2024-02-26T00:06:32;3.60;99.90
67163;DHT22;54092;53.088;8.850;2024-02-26T00:08:57;3.60;99.90
67163;DHT22;54092;53.088;8.850;2024-02-26T00:11:23;3.60;99.90
67163;DHT22;54092;53.088;8.850;2024-02-26T00:13:48;3.60;99.90
67163;DHT22;54092;53.088;8.850;2024-02-26T00:16:14;3.50;99.90
67163;DHT22;54092;53.088;8.850;2024-02-26T00:18:39;3.50;99.90
67163;DHT22;54092;53.088;8.850;2024-02-26T00:21:05;3.50;99.90
67163;DHT22;54092;53.088;8.850;2024-02-26T00:23:31;3.50;99.90
67163;DHT22;54092;53.088;8.850;2024-02-26T00:25:56;3.40;99.90
67163;DHT22;54092;53.088;8.850;2024-02-26T00:28:22;3.40;99.90
67163;DHT22;54092;53.088;8.850;2024-02-26T00:30:47;3.40;99.90
67163;DHT22;54092;53.088;8.850;2024-02-26T00:33:16;3.40;99.90
67163;DHT22;54092;53.088;8.850;2024-02-26T00:35:42;3.40;99.90
67163;DHT22;54092;53.088;8.850;2024-02-26T00:38:07;3.30;99.90
67163;DHT22;54092;53.088;8.850;2024-02-26T00:40:33;3.30;99.90
67163;DHT22;54092;53.088;8.850;2024-02-26T00:42:59;3.30;99.90
67163;DHT22;54092;53.088;8.850;2024-02-26T00:45:25;3.30;99.90
67163;DHT22;54092;53.088;8.850;2024-02-26T00:47:50;3.30;99.90
67163;DHT22;54092;53.088;8.850;2024-02-26T00:50:16;3.30;99.90
67163;DHT22;54092;53.088;8.850;2024-02-26T00:52:42;3.20;99.90
67163;DHT22;54092;53.088;8.850;2024-02-26T00:55:07;3.20;99.90
67163;DHT22;54092;53.088;8.850;2024-02-26T00:57:33;3.20;99.90
67163;DHT22;54092;53.088;8.850;2024-02-26T00:59:58;3.20;99.90
67163;DHT22;54092;53.088;8.850;2024-02-26T01:02:24;3.20;99.90
67163;DHT22;54092;53.088;8.850;2024-02-26T01:04:50;3.10;99.90
67163;DHT22;54092;53.088;8.850;2024-02-26T01:07:16;3.10;99.90
67163;DHT22;54092;53.088;8.850;2024-02-26T01:09:42;3.10;99.90
67163;DHT22;54092;53.088;8.850;2024-02-26T01:12:08;3.10;99.90
67163;DHT22;54092;53.088;8.850;2024-02-26T01:14:34;3.00;99.90
67163;DHT22;54092;53.088;8.850;2024-02-26T01:16:59;3.00;99.90
67163;DHT22;54092;53.088;8.850;2024-02-26T01:19:24;3.00;99.90
67163;DHT22;54092;53.088;8.850;2024-02-26T01:21:50;3.00;99.90
67163;DHT22;54092;53.088;8.850;2024-02-26T01:24:15;2.90;99.90
67163;DHT22;54092;53.088;8.850;2024-02-26T01:26:42;3.00;99.90
67163;DHT22;54092;53.088;8.850;2024-02-26T01:29:07;3.00;99.90
67163;DHT22;54092;53.088;8.850;2024-02-26T01:31:32;3.00;99.90
67163;DHT22;54092;53.088;8.850;2024-02-26T01:33:58;2.90;99.90
67163;DHT22;54092;53.088;8.850;2024-02-26T01:36:23;2.90;99.90
67163;DHT22;54092;53.088;8.850;2024-02-26T01:38:49;2.90;99.90
67163;DHT22;54092;53.088;8.850;2024-02-26T01:41:14;2.90;99.90
67163;DHT22;54092;53.088;8.850;2024-02-26T01:43:40;2.80;99.90
67163;DHT22;54092;53.088;8.850;2024-02-26T01:46:08;2.80;99.90
67163;DHT22;54092;53.088;8.850;2024-02-26T01:48:36;2.80;99.90
67163;DHT22;54092;53.088;8.850;2024-02-26T01:51:02;2.80;99.90
67163;DHT22;54092;53.088;8.850;2024-02-26T01:53:28;2.80;99.90
67163;DHT22;54092;53.088;8.850;2024-02-26T01:55:53;2.70;99.90
67163;DHT22;54092;53.088;8.850;2024-02-26T01:58:19;2.80;99.90
67163;DHT22;54092;53.088;8.850;2024-02-26T02:00:45;2.70;99.90
67163;DHT22;54092;53.088;8.850;2024-02-26T02:03:11;2.70;99.90
67163;DHT22;54092;53.088;8.850;2024-02-26T02:05:37;2.70;99.90
67163;DHT22;54092;53.088;8.850;2024-02-26T02:08:07;2.70;99.90
67163;DHT22;54092;53.088;8.850;2024-02-26T02:10:33;2.60;99.90
67163;DHT22;54092;53.088;8.850;2024-02-26T02:12:59;2.60;99.90
67163;DHT22;54092;53.088;8.850;2024-02-26T02:15:24;2.60;99.90
67163;DHT22;54092;53.088;8.850;2024-02-26T02:17:50;2.60;99.90
67163;DHT22;54092;53.088;8.850;2024-02-26T02:20:17;2.60;99.90
67163;DHT22;54092;53.088;8.850;2024-02-26T02:22:46;2.50;99.90
67163;DHT22;54092;53.088;8.850;2024-02-26T02:25:12;2.50;99.90
67163;DHT22;54092;53.088;8.850;2024-02-26T02:27:39;2.50;99.90
67163;DHT22;54092;53.088;8.850;2024-02-26T02:30:05;2.50;99.90
67163;DHT22;54092;53.088;8.850;2024-02-26T02:32:31;2.50;99.90
67163;DHT22;54092;53.088;8.850;2024-02-26T02:34:57;2.50;99.90
67163;DHT22;54092;53.088;8.850;2024-02-26T02:37:23;2.50;99.90
67163;DHT22;54092;53.088;8.850;2024-02-26T02:39:49;2.50;99.90
67163;DHT22;54092;53.088;8.850;2024-02-26T02:42:14;2.50;99.90
67163;DHT22;54092;53.088;8.850;2024-02-26T02:44:40;2.40;99.90
67163;DHT22;54092;53.088;8.850;2024-02-26T02:47:05;2.40;99.90
67163;DHT22;54092;53.088;8.850;2024-02-26T02:49:31;2.40;99.90
67163;DHT22;54092;53.088;8.850;2024-02-26T02:51:56;2.30;99.90
67163;DHT22;54092;53.088;8.850;2024-02-26T02:54:23;2.30;99.90
67163;DHT22;54092;53.088;8.850;2024-02-26T02:56:48;2.30;99.90
67163;DHT22;54092;53.088;8.850;2024-02-26T02:59:14;2.30;99.90
67163;DHT22;54092;53.088;8.850;2024-02-26T03:01:39;2.30;99.90
67163;DHT22;54092;53.088;8.850;2024-02-26T03:04:05;2.20;99.90
67163;DHT22;54092;53.088;8.850;2024-02-26T03:06:30;2.30;99.90
67163;DHT22;54092;53.088;8.850;2024-02-26T03:08:56;2.30;99.90
67163;DHT22;54092;53.088;8.850;2024-02-26T03:11:21;2.20;99.90
67163;DHT22;54092;53.088;8.850;2024-02-26T03:13:47;2.20;99.90
67163;DHT22;54092;53.088;8.850;2024-02-26T03:16:12;2.20;99.90
67163;DHT22;54092;53.088;8.850;2024-02-26T03:18:41;2.30;99.90
67163;DHT22;54092;53.088;8.850;2024-02-26T03:21:07;2.30;99.90
67163;DHT22;54092;53.088;8.850;2024-02-26T03:23:32;2.30;99.90
67163;DHT22;54092;53.088;8.850;2024-02-26T03:26:04;2.30;99.90
67163;DHT22;54092;53.088;8.850;2024-02-26T03:28:30;2.30;99.90
67163;DHT22;54092;53.088;8.850;2024-02-26T03:30:58;2.30;99.90
67163;DHT22;54092;53.088;8.850;2024-02-26T03:33:24;2.30;99.90
67163;DHT22;54092;53.088;8.850;2024-02-26T03:35:49;2.30;99.90
67163;DHT22;54092;53.088;8.850;2024-02-26T03:38:15;2.30;99.90
67163;DHT22;54092;53.088;8.850;2024-02-26T03:40:40;2.30;99.90
67163;DHT22;54092;53.088;8.850;2024-02-26T03:43:06;2.30;99.90
67163;DHT22;54092;53.088;8.850;2024-02-26T03:45:33;2.30;99.90
67163;DHT22;54092;53.088;8.850;2024-02-26T03:47:58;2.30;99.90
67163;DHT22;54092;53.088;8.850;2024-02-26T03:50:24;2.30;99.90
67163;DHT22;54092;53.088;8.850;2024-02-26T03:52:49;2.30;99.90
67163;DHT22;54092;53.088;8.850;2024-02-26T03:55:15;2.20;99.90
67163;DHT22;54092;53.088;8.850;2024-02-26T03:57:40;2.20;99.90
67163;DHT22;54092;53.088;8.850;2024-02-26T04:00:06;2.20;99.90
67163;DHT22;54092;53.088;8.850;2024-02-26T04:02:32;2.20;99.90
67163;DHT22;54092;53.088;8.850;2024-02-26T04:04:58;2.20;99.90
67163;DHT22;54092;53.088;8.850;2024-02-26T04:07:24;2.10;99.90
67163;DHT22;54092;53.088;8.850;2024-02-26T04:09:50;2.10;99.90
67163;DHT22;54092;53.088;8.850;2024-02-26T04:12:15;2.10;99.90
67163;DHT22;54092;53.088;8.850;2024-02-26T04:14:41;2.10;99.90
67163;DHT22;54092;53.088;8.850;2024-02-26T04:17:06;2.10;99.90
67163;DHT22;54092;53.088;8.850;2024-02-26T04:19:32;2.10;99.90
67163;DHT22;54092;53.088;8.850;2024-02-26T04:21:57;2.10;99.90
67163;DHT22;54092;53.088;8.850;2024-02-26T04:24:23;2.10;99.90
67163;DHT22;54092;53.088;8.850;2024-02-26T04:26:48;2.10;99.90
67163;DHT22;54092;53.088;8.850;2024-02-26T04:29:15;2.10;99.90
67163;DHT22;54092;53.088;8.850;2024-02-26T04:31:40;2.10;99.90
67163;DHT22;54092;53.088;8.850;2024-02-26T04:34:08;2.10;99.90
67163;DHT22;54092;53.088;8.850;2024-02-26T04:36:33;2.10;99.90
67163;DHT22;54092;53.088;8.850;2024-02-26T04:38:59;2.10;99.90
67163;DHT22;54092;53.088;8.850;2024-02-26T04:41:24;2.10;99.90
67163;DHT22;54092;53.088;8.850;2024-02-26T04:43:50;2.10;99.90
67163;DHT22;54092;53.088;8.850;2024-02-26T04:46:15;2.10;99.90
67163;DHT22;54092;53.088;8.850;2024-02-26T04:48:41;2.10;99.90
67163;DHT22;54092;53.088;8.850;2024-02-26T04:51:11;2.10;99.90
67163;DHT22;54092;53.088;8.850;2024-02-26T04:53:37;2.10;99.90
67163;DHT22;54092;53.088;8.850;2024-02-26T04:56:03;2.10;99.90
67163;DHT22;54092;53.088;8.850;2024-02-26T04:58:28;2.10;99.90
67163;DHT22;54092;53.088;8.850;2024-02-26T05:00:54;2.00;99.90
67163;DHT22;54092;53.088;8.850;2024-02-26T05:03:19;2.10;99.90
67163;DHT22;54092;53.088;8.850;2024-02-26T05:05:45;2.10;99.90
67163;DHT22;54092;53.088;8.850;2024-02-26T05:08:11;2.10;99.90
67163;DHT22;54092;53.088;8.850;2024-02-26T05:10:39;2.10;99.90
67163;DHT22;54092;53.088;8.850;2024-02-26T05:13:09;2.10;99.90
67163;DHT22;54092;53.088;8.850;2024-02-26T05:15:35;2.10;99.90
67163;DHT22;54092;53.088;8.850;2024-02-26T05:18:01;2.20;99.90
67163;DHT22;54092;53.088;8.850;2024-02-26T05:20:27;2.20;99.90
67163;DHT22;54092;53.088;8.850;2024-02-26T05:22:53;2.20;99.90
67163;DHT22;54092;53.088;8.850;2024-02-26T05:25:19;2.30;99.90
67163;DHT22;54092;53.088;8.850;2024-02-26T05:27:44;2.20;99.90
67163;DHT22;54092;53.088;8.850;2024-02-26T05:30:10;2.20;99.90
67163;DHT22;54092;53.088;8.850;2024-02-26T05:32:36;2.20;99.90
67163;DHT22;54092;53.088;8.850;2024-02-26T05:35:02;2.20;99.90
67163;DHT22;54092;53.088;8.850;2024-02-26T05:37:31;2.20;99.90
67163;DHT22;54092;53.088;8.850;2024-02-26T05:39:56;2.20;99.90
67163;DHT22;54092;53.088;8.850;2024-02-26T05:42:21;2.30;99.90
67163;DHT22;54092;53.088;8.850;2024-02-26T05:44:47;2.30;99.90
67163;DHT22;54092;53.088;8.850;2024-02-26T05:47:13;2.20;99.90
67163;DHT22;54092;53.088;8.850;2024-02-26T05:49:42;2.30;99.90
67163;DHT22;54092;53.088;8.850;2024-02-26T05:52:08;2.20;99.90
67163;DHT22;54092;53.088;8.850;2024-02-26T05:54:33;2.30;99.90
67163;DHT22;54092;53.088;8.850;2024-02-26T05:56:59;2.30;99.90
67163;DHT22;54092;53.088;8.850;2024-02-26T05:59:24;2.30;99.90
67163;DHT22;54092;53.088;8.850;2024-02-26T06:01:51;2.30;99.90
67163;DHT22;54092;53.088;8.850;2024-02-26T06:04:17;2.30;99.90
67163;DHT22;54092;53.088;8.850;2024-02-26T06:06:44;2.30;99.90
67163;DHT22;54092;53.088;8.850;2024-02-26T06:09:11;2.30;99.90
67163;DHT22;54092;53.088;8.850;2024-02-26T06:11:37;2.30;99.90
67163;DHT22;54092;53.088;8.850;2024-02-26T06:14:02;2.30;99.90
67163;DHT22;54092;53.088;8.850;2024-02-26T06:16:28;2.40;99.90
67163;DHT22;54092;53.088;8.850;2024-02-26T06:18:53;2.40;99.90
67163;DHT22;54092;53.088;8.850;2024-02-26T06:21:19;2.30;99.90
67163;DHT22;54092;53.088;8.850;2024-02-26T06:23:44;2.40;99.90
67163;DHT22;54092;53.088;8.850;2024-02-26T06:26:10;2.30;99.90
67163;DHT22;54092;53.088;8.850;2024-02-26T06:28:35;2.40;99.90
67163;DHT22;54092;53.088;8.850;2024-02-26T06:31:01;2.40;99.90
67163;DHT22;54092;53.088;8.850;2024-02-26T06:33:27;2.40;99.90
67163;DHT22;54092;53.088;8.850;2024-02-26T06:35:53;2.40;99.90
67163;DHT22;54092;53.088;8.850;2024-02-26T06:38:18;2.50;99.90
67163;DHT22;54092;53.088;8.850;2024-02-26T06:40:44;2.50;99.90
67163;DHT22;54092;53.088;8.850;2024-02-26T06:43:10;2.50;99.90
67163;DHT22;54092;53.088;8.850;2024-02-26T06:45:35;2.50;99.90
67163;DHT22;54092;53.088;8.850;2024-02-26T06:48:01;2.60;99.90
67163;DHT22;54092;53.088;8.850;2024-02-26T06:50:27;2.60;99.90
67163;DHT22;54092;53.088;8.850;2024-02-26T06:52:53;2.60;99.90
67163;DHT22;54092;53.088;8.850;2024-02-26T06:55:18;2.60;99.90
67163;DHT22;54092;53.088;8.850;2024-02-26T06:57:44;2.70;99.90
67163;DHT22;54092;53.088;8.850;2024-02-26T07:00:10;2.70;99.90
67163;DHT22;54092;53.088;8.850;2024-02-26T07:02:40;2.70;99.90
67163;DHT22;54092;53.088;8.850;2024-02-26T07:05:06;2.80;99.90
67163;DHT22;54092;53.088;8.850;2024-02-26T07:07:31;2.80;99.90
67163;DHT22;54092;53.088;8.850;2024-02-26T07:09:57;2.80;99.90
67163;DHT22;54092;53.088;8.850;2024-02-26T07:12:23;2.90;99.90
67163;DHT22;54092;53.088;8.850;2024-02-26T07:14:49;2.90;99.90
67163;DHT22;54092;53.088;8.850;2024-02-26T07:17:16;3.00;99.90
67163;DHT22;54092;53.088;8.850;2024-02-26T07:19:41;2.90;99.90
67163;DHT22;54092;53.088;8.850;2024-02-26T07:22:07;3.10;99.90
67163;DHT22;54092;53.088;8.850;2024-02-26T07:24:33;3.10;99.90
67163;DHT22;54092;53.088;8.850;2024-02-26T07:26:58;3.10;99.90
67163;DHT22;54092;53.088;8.850;2024-02-26T07:29:24;3.20;99.90
67163;DHT22;54092;53.088;8.850;2024-02-26T07:31:49;3.20;99.90
67163;DHT22;54092;53.088;8.850;2024-02-26T07:34:15;3.20;99.90
67163;DHT22;54092;53.088;8.850;2024-02-26T07:36:40;3.20;99.90
67163;DHT22;54092;53.088;8.850;2024-02-26T07:39:06;3.30;99.90
67163;DHT22;54092;53.088;8.850;2024-02-26T07:41:31;3.30;99.90
67163;DHT22;54092;53.088;8.850;2024-02-26T07:43:57;3.30;99.90
67163;DHT22;54092;53.088;8.850;2024-02-26T07:46:22;3.30;99.90
67163;DHT22;54092;53.088;8.850;2024-02-26T07:48:48;3.40;99.90
67163;DHT22;54092;53.088;8.850;2024-02-26T07:51:13;3.40;99.90
67163;DHT22;54092;53.088;8.850;2024-02-26T07:53:40;3.40;99.90
67163;DHT22;54092;53.088;8.850;2024-02-26T07:56:05;3.50;99.90
67163;DHT22;54092;53.088;8.850;2024-02-26T07:58:32;3.50;99.90
67163;DHT22;54092;53.088;8.850;2024-02-26T08:00:58;3.60;99.90
67163;DHT22;54092;53.088;8.850;2024-02-26T08:03:24;3.60;99.90
67163;DHT22;54092;53.088;8.850;2024-02-26T08:05:50;3.70;99.90
67163;DHT22;54092;53.088;8.850;2024-02-26T08:08:16;3.70;99.90
67163;DHT22;54092;53.088;8.850;2024-02-26T08:10:41;3.80;99.90
67163;DHT22;54092;53.088;8.850;2024-02-26T08:13:07;3.80;99.90
67163;DHT22;54092;53.088;8.850;2024-02-26T08:15:32;3.80;99.90
67163;DHT22;54092;53.088;8.850;2024-02-26T08:17:59;3.90;99.90
67163;DHT22;54092;53.088;8.850;2024-02-26T08:20:28;3.90;99.90
67163;DHT22;54092;53.088;8.850;2024-02-26T08:22:53;3.90;99.90
67163;DHT22;54092;53.088;8.850;2024-02-26T08:25:19;3.90;99.90
67163;DHT22;54092;53.088;8.850;2024-02-26T08:27:44;3.90;99.90
67163;DHT22;54092;53.088;8.850;2024-02-26T08:30:10;4.00;99.90
67163;DHT22;54092;53.088;8.850;2024-02-26T08:32:38;4.00;99.90
67163;DHT22;54092;53.088;8.850;2024-02-26T08:35:04;4.00;99.90
67163;DHT22;54092;53.088;8.850;2024-02-26T08:37:30;4.00;99.90
67163;DHT22;54092;53.088;8.850;2024-02-26T08:39:55;4.10;99.90
67163;DHT22;54092;53.088;8.850;2024-02-26T08:42:21;4.10;99.90
67163;DHT22;54092;53.088;8.850;2024-02-26T08:44:49;4.20;99.90
67163;DHT22;54092;53.088;8.850;2024-02-26T08:47:15;4.20;99.90
67163;DHT22;54092;53.088;8.850;2024-02-26T08:49:44;4.20;99.90
67163;DHT22;54092;53.088;8.850;2024-02-26T08:52:10;4.30;99.90
67163;DHT22;54092;53.088;8.850;2024-02-26T08:54:35;4.30;99.90
67163;DHT22;54092;53.088;8.850;2024-02-26T08:57:01;4.40;99.90
67163;DHT22;54092;53.088;8.850;2024-02-26T08:59:28;4.50;99.90
67163;DHT22;54092;53.088;8.850;2024-02-26T09:01:53;4.50;99.90
67163;DHT22;54092;53.088;8.850;2024-02-26T09:04:19;4.50;99.90
67163;DHT22;54092;53.088;8.850;2024-02-26T09:06:44;4.60;99.90
67163;DHT22;54092;53.088;8.850;2024-02-26T09:09:10;4.60;99.90
67163;DHT22;54092;53.088;8.850;2024-02-26T09:11:36;4.60;99.90
67163;DHT22;54092;53.088;8.850;2024-02-26T09:14:02;4.70;99.90
67163;DHT22;54092;53.088;8.850;2024-02-26T09:16:29;4.80;99.90
67163;DHT22;54092;53.088;8.850;2024-02-26T09:18:54;4.90;99.90
67163;DHT22;54092;53.088;8.850;2024-02-26T09:21:20;4.90;99.90
67163;DHT22;54092;53.088;8.850;2024-02-26T09:23:49;4.90;99.90
67163;DHT22;54092;53.088;8.850;2024-02-26T09:26:15;5.00;99.90
67163;DHT22;54092;53.088;8.850;2024-02-26T09:28:40;5.10;99.90
67163;DHT22;54092;53.088;8.850;2024-02-26T09:31:06;5.20;99.90
67163;DHT22;54092;53.088;8.850;2024-02-26T09:33:35;5.20;99.90
67163;DHT22;54092;53.088;8.850;2024-02-26T09:36:00;5.30;99.90
67163;DHT22;54092;53.088;8.850;2024-02-26T09:38:26;5.40;99.90
67163;DHT22;54092;53.088;8.850;2024-02-26T09:40:52;5.50;99.90
67163;DHT22;54092;53.088;8.850;2024-02-26T09:43:21;5.50;99.90
67163;DHT22;54092;53.088;8.850;2024-02-26T09:45:50;5.60;99.90
67163;DHT22;54092;53.088;8.850;2024-02-26T09:48:17;5.70;99.90
67163;DHT22;54092;53.088;8.850;2024-02-26T09:50:43;5.90;99.90
67163;DHT22;54092;53.088;8.850;2024-02-26T09:53:10;6.00;99.90
67163;DHT22;54092;53.088;8.850;2024-02-26T09:55:36;6.10;99.90
67163;DHT22;54092;53.088;8.850;2024-02-26T09:58:04;6.20;99.90
67163;DHT22;54092;53.088;8.850;2024-02-26T10:00:31;6.30;99.90
67163;DHT22;54092;53.088;8.850;2024-02-26T10:03:04;6.40;99.90
67163;DHT22;54092;53.088;8.850;2024-02-26T10:05:34;6.50;99.90
67163;DHT22;54092;53.088;8.850;2024-02-26T10:08:01;6.60;99.90
67163;DHT22;54092;53.088;8.850;2024-02-26T10:10:29;6.70;99.90
67163;DHT22;54092;53.088;8.850;2024-02-26T10:12:54;6.80;99.90
67163;DHT22;54092;53.088;8.850;2024-02-26T10:15:20;6.90;99.90
67163;DHT22;54092;53.088;8.850;2024-02-26T10:17:46;7.00;99.90
67163;DHT22;54092;53.088;8.850;2024-02-26T10:20:13;7.20;99.90
67163;DHT22;54092;53.088;8.850;2024-02-26T10:22:57;7.30;99.90
67163;DHT22;54092;53.088;8.850;2024-02-26T10:25:23;7.50;99.90
67163;DHT22;54092;53.088;8.850;2024-02-26T10:27:49;7.70;99.90
67163;DHT22;54092;53.088;8.850;2024-02-26T10:30:22;7.70;99.90
67163;DHT22;54092;53.088;8.850;2024-02-26T10:32:49;7.80;99.90
67163;DHT22;54092;53.088;8.850;2024-02-26T10:35:15;7.90;99.90
67163;DHT22;54092;53.088;8.850;2024-02-26T10:37:42;8.00;99.90
67163;DHT22;54092;53.088;8.850;2024-02-26T10:40:14;8.00;99.90
67163;DHT22;54092;53.088;8.850;2024-02-26T10:42:41;8.00;99.90
67163;DHT22;54092;53.088;8.850;2024-02-26T10:45:08;8.00;99.90
67163;DHT22;54092;53.088;8.850;2024-02-26T10:47:37;8.40;99.90
67163;DHT22;54092;53.088;8.850;2024-02-26T10:50:04;8.80;99.90
67163;DHT22;54092;53.088;8.850;2024-02-26T10:52:32;9.10;99.90
67163;DHT22;54092;53.088;8.850;2024-02-26T10:55:01;9.20;99.90
67163;DHT22;54092;53.088;8.850;2024-02-26T10:57:35;9.10;99.90
67163;DHT22;54092;53.088;8.850;2024-02-26T11:00:04;9.00;99.90
67163;DHT22;54092;53.088;8.850;2024-02-26T11:02:34;8.90;99.90
67163;DHT22;54092;53.088;8.850;2024-02-26T11:05:03;8.70;99.90
67163;DHT22;54092;53.088;8.850;2024-02-26T11:07:35;8.70;99.90
67163;DHT22;54092;53.088;8.850;2024-02-26T11:10:05;8.70;99.90
67163;DHT22;54092;53.088;8.850;2024-02-26T11:12:31;8.80;99.90
67163;DHT22;54092;53.088;8.850;2024-02-26T11:14:58;8.90;99.90
67163;DHT22;54092;53.088;8.850;2024-02-26T11:17:27;9.00;99.90
67163;DHT22;54092;53.088;8.850;2024-02-26T11:19:55;9.00;99.90
67163;DHT22;54092;53.088;8.850;2024-02-26T11:22:21;9.10;99.90
67163;DHT22;54092;53.088;8.850;2024-02-26T11:24:48;9.20;99.90
67163;DHT22;54092;53.088;8.850;2024-02-26T11:27:15;9.30;99.90
67163;DHT22;54092;53.088;8.850;2024-02-26T11:29:46;9.30;99.90
67163;DHT22;54092;53.088;8.850;2024-02-26T11:32:13;9.30;99.90
67163;DHT22;54092;53.088;8.850;2024-02-26T11:34:39;9.30;99.90
67163;DHT22;54092;53.088;8.850;2024-02-26T11:37:16;9.40;99.90
67163;DHT22;54092;53.088;8.850;2024-02-26T11:39:42;9.30;99.90
67163;DHT22;54092;53.088;8.850;2024-02-26T11:42:08;9.20;99.90
67163;DHT22;54092;53.088;8.850;2024-02-26T11:44:35;9.00;99.90
67163;DHT22;54092;53.088;8.850;2024-02-26T11:47:11;8.90;99.90
67163;DHT22;54092;53.088;8.850;2024-02-26T11:49:37;8.90;99.90
67163;DHT22;54092;53.088;8.850;2024-02-26T11:52:06;8.80;99.90
67163;DHT22;54092;53.088;8.850;2024-02-26T11:54:47;8.80;99.90
67163;DHT22;54092;53.088;8.850;2024-02-26T11:57:30;8.80;99.90
67163;DHT22;54092;53.088;8.850;2024-02-26T12:05:19;9.00;99.90
67163;DHT22;54092;53.088;8.850;2024-02-26T12:07:47;8.90;99.90
67163;DHT22;54092;53.088;8.850;2024-02-26T12:10:28;8.90;99.90
67163;DHT22;54092;53.088;8.850;2024-02-26T12:13:10;8.90;99.90
67163;DHT22;54092;53.088;8.850;2024-02-26T12:15:43;9.00;99.90
67163;DHT22;54092;53.088;8.850;2024-02-26T12:18:10;8.90;99.90
67163;DHT22;54092;53.088;8.850;2024-02-26T12:20:37;8.90;99.90
67163;DHT22;54092;53.088;8.850;2024-02-26T12:23:03;8.90;99.90
67163;DHT22;54092;53.088;8.850;2024-02-26T12:25:30;9.00;99.90
67163;DHT22;54092;53.088;8.850;2024-02-26T12:27:56;9.10;99.90
67163;DHT22;54092;53.088;8.850;2024-02-26T12:30:23;9.20;99.90
67163;DHT22;54092;53.088;8.850;2024-02-26T12:32:50;9.20;99.90
67163;DHT22;54092;53.088;8.850;2024-02-26T12:35:16;9.40;99.90
67163;DHT22;54092;53.088;8.850;2024-02-26T12:37:43;9.60;99.90
67163;DHT22;54092;53.088;8.850;2024-02-26T12:40:09;9.80;99.90
67163;DHT22;54092;53.088;8.850;2024-02-26T12:42:36;10.10;99.90
67163;DHT22;54092;53.088;8.850;2024-02-26T12:45:07;10.10;99.90
67163;DHT22;54092;53.088;8.850;2024-02-26T12:47:39;10.30;99.90
67163;DHT22;54092;53.088;8.850;2024-02-26T12:50:05;10.40;99.90
67163;DHT22;54092;53.088;8.850;2024-02-26T12:52:35;10.30;99.90
67163;DHT22;54092;53.088;8.850;2024-02-26T12:55:05;10.40;99.90
67163;DHT22;54092;53.088;8.850;2024-02-26T12:57:33;10.50;99.90
67163;DHT22;54092;53.088;8.850;2024-02-26T13:00:00;10.60;99.90
67163;DHT22;54092;53.088;8.850;2024-02-26T13:02:27;10.60;99.90
67163;DHT22;54092;53.088;8.850;2024-02-26T13:04:53;10.40;99.90
67163;DHT22;54092;53.088;8.850;2024-02-26T13:07:20;10.30;99.90
67163;DHT22;54092;53.088;8.850;2024-02-26T13:09:46;10.10;99.90
67163;DHT22;54092;53.088;8.850;2024-02-26T13:12:12;10.00;99.90
67163;DHT22;54092;53.088;8.850;2024-02-26T13:14:38;10.00;99.90
67163;DHT22;54092;53.088;8.850;2024-02-26T13:17:03;9.90;99.90
67163;DHT22;54092;53.088;8.850;2024-02-26T13:19:29;10.00;99.90
67163;DHT22;54092;53.088;8.850;2024-02-26T13:21:55;10.10;99.90
67163;DHT22;54092;53.088;8.850;2024-02-26T13:24:21;10.10;99.90
67163;DHT22;54092;53.088;8.850;2024-02-26T13:26:54;9.90;99.90
67163;DHT22;54092;53.088;8.850;2024-02-26T13:29:19;9.70;99.90
67163;DHT22;54092;53.088;8.850;2024-02-26T13:31:45;9.40;99.90
67163;DHT22;54092;53.088;8.850;2024-02-26T13:34:22;9.40;99.90
67163;DHT22;54092;53.088;8.850;2024-02-26T13:36:48;9.40;99.90
67163;DHT22;54092;53.088;8.850;2024-02-26T13:39:24;9.40;99.90
67163;DHT22;54092;53.088;8.850;2024-02-26T13:41:51;9.40;99.90
67163;DHT22;54092;53.088;8.850;2024-02-26T13:44:16;9.40;99.90
67163;DHT22;54092;53.088;8.850;2024-02-26T13:46:42;9.20;99.90
67163;DHT22;54092;53.088;8.850;2024-02-26T13:49:09;9.20;99.90
67163;DHT22;54092;53.088;8.850;2024-02-26T13:51:34;9.10;99.90
67163;DHT22;54092;53.088;8.850;2024-02-26T13:54:02;9.20;99.90
67163;DHT22;54092;53.088;8.850;2024-02-26T13:56:27;9.10;99.90
67163;DHT22;54092;53.088;8.850;2024-02-26T13:58:53;9.00;99.90
67163;DHT22;54092;53.088;8.850;2024-02-26T14:01:18;9.00;99.90
67163;DHT22;54092;53.088;8.850;2024-02-26T14:03:44;8.80;99.90
67163;DHT22;54092;53.088;8.850;2024-02-26T14:06:10;8.80;99.90
67163;DHT22;54092;53.088;8.850;2024-02-26T14:08:36;8.70;99.90
67163;DHT22;54092;53.088;8.850;2024-02-26T14:11:01;8.70;99.90
67163;DHT22;54092;53.088;8.850;2024-02-26T14:13:27;8.60;99.90
67163;DHT22;54092;53.088;8.850;2024-02-26T14:15:52;8.50;99.90
67163;DHT22;54092;53.088;8.850;2024-02-26T14:18:18;8.50;99.90
67163;DHT22;54092;53.088;8.850;2024-02-26T14:20:43;8.50;99.90
67163;DHT22;54092;53.088;8.850;2024-02-26T14:23:10;8.50;99.90
67163;DHT22;54092;53.088;8.850;2024-02-26T14:25:35;8.40;99.90
67163;DHT22;54092;53.088;8.850;2024-02-26T14:28:02;8.30;99.90
67163;DHT22;54092;53.088;8.850;2024-02-26T14:30:28;8.30;99.90
67163;DHT22;54092;53.088;8.850;2024-02-26T14:32:54;8.10;99.90
67163;DHT22;54092;53.088;8.850;2024-02-26T14:35:19;8.20;99.90
67163;DHT22;54092;53.088;8.850;2024-02-26T14:37:45;8.10;99.90
67163;DHT22;54092;53.088;8.850;2024-02-26T14:40:15;8.00;99.90
67163;DHT22;54092;53.088;8.850;2024-02-26T14:42:41;8.00;99.90
67163;DHT22;54092;53.088;8.850;2024-02-26T14:45:07;8.00;99.90
67163;DHT22;54092;53.088;8.850;2024-02-26T14:47:35;7.90;99.90
67163;DHT22;54092;53.088;8.850;2024-02-26T14:50:01;8.00;99.90
67163;DHT22;54092;53.088;8.850;2024-02-26T14:52:26;8.00;99.90
67163;DHT22;54092;53.088;8.850;2024-02-26T14:54:52;7.80;99.90
67163;DHT22;54092;53.088;8.850;2024-02-26T14:57:18;7.80;99.90
67163;DHT22;54092;53.088;8.850;2024-02-26T14:59:44;7.80;99.90
67163;DHT22;54092;53.088;8.850;2024-02-26T15:02:10;7.70;99.90
67163;DHT22;54092;53.088;8.850;2024-02-26T15:04:36;7.60;99.90
67163;DHT22;54092;53.088;8.850;2024-02-26T15:07:02;7.50;99.90
67163;DHT22;54092;53.088;8.850;2024-02-26T15:09:28;7.50;99.90
67163;DHT22;54092;53.088;8.850;2024-02-26T15:11:53;7.50;99.90
67163;DHT22;54092;53.088;8.850;2024-02-26T15:14:19;7.40;99.90
67163;DHT22;54092;53.088;8.850;2024-02-26T15:16:44;7.40;99.90
67163;DHT22;54092;53.088;8.850;2024-02-26T15:19:10;7.30;99.90
67163;DHT22;54092;53.088;8.850;2024-02-26T15:21:45;7.30;99.90
67163;DHT22;54092;53.088;8.850;2024-02-26T15:24:11;7.30;99.90
67163;DHT22;54092;53.088;8.850;2024-02-26T15:26:37;7.30;99.90
67163;DHT22;54092;53.088;8.850;2024-02-26T15:29:03;7.30;99.90
67163;DHT22;54092;53.088;8.850;2024-02-26T15:31:28;7.30;99.90
67163;DHT22;54092;53.088;8.850;2024-02-26T15:33:54;7.30;99.90
67163;DHT22;54092;53.088;8.850;2024-02-26T15:36:19;7.30;99.90
67163;DHT22;54092;53.088;8.850;2024-02-26T15:38:45;7.30;99.90
67163;DHT22;54092;53.088;8.850;2024-02-26T15:41:11;7.20;99.90
67163;DHT22;54092;53.088;8.850;2024-02-26T15:43:37;7.20;99.90
67163;DHT22;54092;53.088;8.850;2024-02-26T15:46:03;7.10;99.90